Time;durP1;ratioP1;P1;durP2;ratioP2;P2;SDS_P1;SDS_P2;PMS_P1;PMS_P2;Temp;Humidity;BMP_temperature;BMP_pressure;BME280_temperature;BME280_humidity;BME280_pressure;Samples;Min_cycle;Max_cycle;Signal;HPM_P1;HPM_P2
2022/05/16 00:02:24;;;;;;;7.35;3.47;;;;;;;;;;5097626;28;20372;-60
2022/05/16 00:04:51;;;;;;;7.43;3.38;;;;;;;;;;5096879;28;20498;-60
2022/05/16 00:07:17;;;;;;;7.32;3.60;;;;;;;;;;5088421;28;20546;-60
2022/05/16 00:09:43;;;;;;;8.57;3.20;;;;;;;;;;5096176;28;20561;-60
2022/05/16 00:12:10;;;;;;;9.80;3.38;;;;;;;;;;5089614;28;20631;-59
2022/05/16 00:14:37;;;;;;;10.35;3.67;;;;;;;;;;5093864;28;20031;-60
2022/05/16 00:17:03;;;;;;;13.18;3.45;;;;;;;;;;5094434;28;20031;-60
2022/05/16 00:19:29;;;;;;;7.05;3.33;;;;;;;;;;5091210;28;20028;-60
2022/05/16 00:21:55;;;;;;;7.13;3.50;;;;;;;;;;5093600;28;20514;-60
2022/05/16 00:24:26;;;;;;;8.07;2.92;;;;;;;;;;5096340;28;20731;-59
2022/05/16 00:26:52;;;;;;;7.35;3.25;;;;;;;;;;5096420;28;20032;-60
2022/05/16 00:29:18;;;;;;;7.50;3.28;;;;;;;;;;5094894;28;20103;-60
2022/05/16 00:31:44;;;;;;;8.52;3.15;;;;;;;;;;5103034;28;20111;-60
2022/05/16 00:34:10;;;;;;;7.10;3.67;;;;;;;;;;5078567;28;20030;-59
2022/05/16 00:36:36;;;;;;;7.05;3.45;;;;;;;;;;5098661;28;20020;-60
2022/05/16 00:39:02;;;;;;;8.50;3.38;;;;;;;;;;5090158;28;20051;-59
2022/05/16 00:41:28;;;;;;;6.47;3.42;;;;;;;;;;5093343;28;20028;-59
2022/05/16 00:43:57;;;;;;;6.75;3.47;;;;;;;;;;5094162;28;20024;-59
2022/05/16 00:46:24;;;;;;;10.60;3.85;;;;;;;;;;5095982;28;20023;-59
2022/05/16 00:48:50;;;;;;;8.30;3.40;;;;;;;;;;5091972;28;20024;-59
2022/05/16 00:51:28;;;;;;;9.55;3.90;;;;;;;;;;5095137;28;20037;-59
2022/05/16 00:53:57;;;;;;;7.07;3.40;;;;;;;;;;5100486;28;20024;-60
2022/05/16 00:56:24;;;;;;;7.22;3.65;;;;;;;;;;5095644;28;20054;-59
2022/05/16 00:58:51;;;;;;;7.88;3.72;;;;;;;;;;5096204;28;20026;-59
2022/05/16 01:06:48;;;;;;;7.85;4.00;;;;;;;;;;5098761;28;20089;-60
2022/05/16 01:09:14;;;;;;;9.30;3.50;;;;;;;;;;5102343;28;20038;-60
2022/05/16 01:11:40;;;;;;;5.68;3.70;;;;;;;;;;5083359;28;20396;-60
2022/05/16 01:14:06;;;;;;;6.97;3.65;;;;;;;;;;5084139;28;20035;-60
2022/05/16 01:16:32;;;;;;;10.75;4.00;;;;;;;;;;5099343;28;20460;-60
2022/05/16 01:18:59;;;;;;;6.30;3.53;;;;;;;;;;5096735;28;20028;-59
2022/05/16 01:21:39;;;;;;;7.80;3.75;;;;;;;;;;5099453;28;20028;-60
2022/05/16 01:24:13;;;;;;;9.23;4.25;;;;;;;;;;5099581;28;20034;-60
2022/05/16 01:26:40;;;;;;;9.43;4.10;;;;;;;;;;5094734;28;20114;-60
2022/05/16 01:29:06;;;;;;;7.70;4.25;;;;;;;;;;5078780;27;20439;-59
2022/05/16 01:31:32;;;;;;;8.65;4.03;;;;;;;;;;5096988;28;20056;-59
2022/05/16 01:33:59;;;;;;;8.07;4.20;;;;;;;;;;5097689;28;20031;-59
2022/05/16 01:36:25;;;;;;;8.10;3.95;;;;;;;;;;5098832;28;20027;-60
2022/05/16 01:38:51;;;;;;;7.65;3.78;;;;;;;;;;5098805;28;20531;-60
2022/05/16 01:41:19;;;;;;;8.07;4.07;;;;;;;;;;5097514;28;20024;-60
2022/05/16 01:43:47;;;;;;;10.50;3.78;;;;;;;;;;5097169;28;20048;-59
2022/05/16 01:46:16;;;;;;;8.20;3.95;;;;;;;;;;5099768;28;20032;-59
2022/05/16 01:48:43;;;;;;;8.52;4.05;;;;;;;;;;5096733;28;20032;-60
2022/05/16 01:51:10;;;;;;;7.93;3.90;;;;;;;;;;5100130;28;20056;-60
2022/05/16 01:53:36;;;;;;;9.48;4.20;;;;;;;;;;5089323;28;20868;-60
2022/05/16 01:56:03;;;;;;;8.52;4.15;;;;;;;;;;5102286;28;20121;-60
2022/05/16 01:58:29;;;;;;;8.00;3.58;;;;;;;;;;5095398;28;20446;-59
2022/05/16 02:00:55;;;;;;;8.43;4.00;;;;;;;;;;5096832;28;20028;-60
2022/05/16 02:03:22;;;;;;;8.70;3.78;;;;;;;;;;5095547;28;20028;-60
2022/05/16 02:05:48;;;;;;;7.30;3.78;;;;;;;;;;5084469;28;20042;-60
2022/05/16 02:08:14;;;;;;;11.68;4.30;;;;;;;;;;5092509;28;20023;-59
2022/05/16 02:10:41;;;;;;;7.97;3.97;;;;;;;;;;5081740;28;20633;-59
2022/05/16 02:13:08;;;;;;;8.35;4.00;;;;;;;;;;5089530;28;20487;-60
2022/05/16 02:15:35;;;;;;;8.02;3.95;;;;;;;;;;5095758;28;20513;-60
2022/05/16 02:18:01;;;;;;;7.32;4.00;;;;;;;;;;5095068;28;20047;-59
2022/05/16 02:20:27;;;;;;;12.25;4.70;;;;;;;;;;5088498;28;20047;-60
2022/05/16 02:25:42;;;;;;;8.32;3.95;;;;;;;;;;5082436;28;20054;-59
2022/05/16 02:28:14;;;;;;;9.25;4.07;;;;;;;;;;5097313;28;20676;-60
2022/05/16 02:30:41;;;;;;;9.80;4.30;;;;;;;;;;5087134;28;20031;-59
2022/05/16 02:33:07;;;;;;;6.65;4.00;;;;;;;;;;5085165;28;20624;-59
2022/05/16 02:35:34;;;;;;;7.03;4.00;;;;;;;;;;5090222;28;20024;-59
2022/05/16 02:38:00;;;;;;;9.02;4.43;;;;;;;;;;5096660;28;20097;-59
2022/05/16 02:40:27;;;;;;;6.35;3.83;;;;;;;;;;5095992;28;20031;-59
2022/05/16 02:42:53;;;;;;;8.23;4.38;;;;;;;;;;5096921;28;20024;-59
2022/05/16 02:45:20;;;;;;;7.18;4.07;;;;;;;;;;5097332;28;20038;-60
2022/05/16 02:47:46;;;;;;;7.45;4.38;;;;;;;;;;5091313;27;20028;-59
2022/05/16 02:50:12;;;;;;;8.57;4.18;;;;;;;;;;5093467;28;20024;-59
2022/05/16 02:52:38;;;;;;;10.13;4.40;;;;;;;;;;5095419;28;20070;-60
2022/05/16 02:55:05;;;;;;;9.43;4.75;;;;;;;;;;5091745;28;20031;-60
2022/05/16 02:57:32;;;;;;;8.20;4.38;;;;;;;;;;5100391;28;20122;-60
2022/05/16 02:59:58;;;;;;;8.75;4.40;;;;;;;;;;5097870;28;20752;-59
2022/05/16 03:02:24;;;;;;;7.43;4.60;;;;;;;;;;5099590;28;20028;-59
2022/05/16 03:04:50;;;;;;;7.88;4.18;;;;;;;;;;5091934;28;20034;-60
2022/05/16 03:07:16;;;;;;;9.32;4.60;;;;;;;;;;5094144;28;20494;-60
2022/05/16 03:09:42;;;;;;;9.13;4.68;;;;;;;;;;5098753;28;20390;-60
2022/05/16 03:12:08;;;;;;;9.98;4.32;;;;;;;;;;5092830;28;20036;-60
2022/05/16 03:14:35;;;;;;;7.10;4.30;;;;;;;;;;5092557;28;20028;-60
2022/05/16 03:17:01;;;;;;;8.60;4.53;;;;;;;;;;5094702;28;20451;-60
2022/05/16 03:19:27;;;;;;;7.85;4.15;;;;;;;;;;5091893;28;20070;-59
2022/05/16 03:21:53;;;;;;;10.52;5.10;;;;;;;;;;5086603;28;20056;-59
2022/05/16 03:24:19;;;;;;;11.00;4.90;;;;;;;;;;5090312;28;20035;-60
2022/05/16 03:26:45;;;;;;;9.43;4.78;;;;;;;;;;5089644;28;20040;-60
2022/05/16 03:29:11;;;;;;;7.28;4.45;;;;;;;;;;5089403;28;20099;-60
2022/05/16 03:31:38;;;;;;;8.52;4.40;;;;;;;;;;5091372;28;20035;-59
2022/05/16 03:34:04;;;;;;;7.70;4.60;;;;;;;;;;5084789;28;20058;-59
2022/05/16 03:36:30;;;;;;;9.88;4.90;;;;;;;;;;5094984;28;20050;-60
2022/05/16 03:41:41;;;;;;;6.50;4.63;;;;;;;;;;5089451;28;20602;-60
2022/05/16 03:44:07;;;;;;;10.45;4.80;;;;;;;;;;5094803;28;20065;-59
2022/05/16 03:46:33;;;;;;;7.25;4.40;;;;;;;;;;5092338;28;20379;-59
2022/05/16 03:48:59;;;;;;;10.60;5.15;;;;;;;;;;5086003;28;20024;-60
2022/05/16 03:51:26;;;;;;;8.60;4.72;;;;;;;;;;5095900;28;20154;-59
2022/05/16 03:53:52;;;;;;;8.82;5.20;;;;;;;;;;5087826;28;20024;-60
2022/05/16 03:56:19;;;;;;;10.43;5.03;;;;;;;;;;5100295;28;20072;-60
2022/05/16 03:58:45;;;;;;;8.60;4.82;;;;;;;;;;5091428;28;20352;-59
2022/05/16 04:01:11;;;;;;;7.43;4.80;;;;;;;;;;5088840;28;20502;-60
2022/05/16 04:03:38;;;;;;;8.25;4.72;;;;;;;;;;5092385;28;20379;-59
2022/05/16 04:06:04;;;;;;;10.40;4.68;;;;;;;;;;5100592;28;20023;-59
2022/05/16 04:08:31;;;;;;;10.23;4.57;;;;;;;;;;5099466;28;20499;-60
2022/05/16 04:10:57;;;;;;;8.45;4.95;;;;;;;;;;5097501;28;20581;-60
2022/05/16 04:13:23;;;;;;;9.45;4.60;;;;;;;;;;5088265;28;20028;-60
2022/05/16 04:15:49;;;;;;;9.05;5.00;;;;;;;;;;5103155;28;20032;-60
2022/05/16 04:18:15;;;;;;;10.18;4.68;;;;;;;;;;5096238;28;20024;-59
2022/05/16 04:20:41;;;;;;;10.50;4.78;;;;;;;;;;5107357;28;20020;-59
2022/05/16 04:23:08;;;;;;;8.90;4.63;;;;;;;;;;5098261;28;20043;-59
2022/05/16 04:25:34;;;;;;;10.52;4.95;;;;;;;;;;5094138;28;20082;-60
2022/05/16 04:28:00;;;;;;;9.15;4.80;;;;;;;;;;5099697;28;20035;-59
2022/05/16 04:30:26;;;;;;;10.30;4.07;;;;;;;;;;5089045;27;20206;-59
2022/05/16 04:32:52;;;;;;;8.70;5.05;;;;;;;;;;5090974;28;20031;-60
2022/05/16 04:35:18;;;;;;;7.88;4.93;;;;;;;;;;5096191;28;20447;-59
2022/05/16 04:37:44;;;;;;;7.95;4.68;;;;;;;;;;5100565;28;20095;-60
2022/05/16 04:40:11;;;;;;;6.40;4.53;;;;;;;;;;5096441;28;20107;-60
2022/05/16 04:42:40;;;;;;;8.40;4.63;;;;;;;;;;5097331;28;20028;-60
2022/05/16 04:45:08;;;;;;;8.40;4.57;;;;;;;;;;5092410;28;20568;-59
2022/05/16 04:47:34;;;;;;;7.95;4.10;;;;;;;;;;5098827;28;20031;-60
2022/05/16 04:50:00;;;;;;;12.98;4.82;;;;;;;;;;5094564;28;20028;-60
2022/05/16 04:52:27;;;;;;;7.40;4.22;;;;;;;;;;5087710;28;20548;-59
2022/05/16 04:54:54;;;;;;;10.07;4.70;;;;;;;;;;5091408;28;20115;-59
2022/05/16 04:57:20;;;;;;;6.55;4.00;;;;;;;;;;5099341;28;20412;-60
2022/05/16 04:59:47;;;;;;;16.33;5.13;;;;;;;;;;5083160;28;20534;-59
2022/05/16 05:02:14;;;;;;;9.88;4.90;;;;;;;;;;5087931;28;20483;-60
2022/05/16 05:04:40;;;;;;;7.22;4.22;;;;;;;;;;5094028;28;20028;-59
2022/05/16 05:07:06;;;;;;;10.85;4.82;;;;;;;;;;5105592;28;20057;-60
2022/05/16 05:14:31;;;;;;;12.82;4.22;;;;;;;;;;5098206;28;20147;-60
2022/05/16 05:15:08;;;;;;;8.32;4.35;;;;;;;;;;5095556;28;20059;-59
2022/05/16 05:17:34;;;;;;;30.60;21.85;;;;;;;;;;5096925;28;20031;-60
2022/05/16 05:20:00;;;;;;;39.92;25.23;;;;;;;;;;5075409;28;20056;-60
2022/05/16 05:22:26;;;;;;;14.73;5.32;;;;;;;;;;5082079;28;20051;-60
2022/05/16 05:24:52;;;;;;;8.68;4.07;;;;;;;;;;5091447;28;20343;-59
2022/05/16 05:27:18;;;;;;;9.32;3.75;;;;;;;;;;5089705;28;20035;-60
2022/05/16 05:29:44;;;;;;;9.48;3.53;;;;;;;;;;5100956;28;20028;-60
2022/05/16 05:32:11;;;;;;;16.38;4.00;;;;;;;;;;5086855;28;20040;-60
2022/05/16 05:34:40;;;;;;;10.55;4.18;;;;;;;;;;5094275;28;20106;-60
2022/05/16 05:37:06;;;;;;;7.90;3.50;;;;;;;;;;5091257;28;20063;-60
2022/05/16 05:39:34;;;;;;;9.90;3.42;;;;;;;;;;5086959;28;20063;-60
2022/05/16 05:42:00;;;;;;;10.73;3.75;;;;;;;;;;5091554;28;20028;-60
2022/05/16 05:44:26;;;;;;;9.57;3.53;;;;;;;;;;5085725;28;20036;-59
2022/05/16 05:46:52;;;;;;;13.05;3.42;;;;;;;;;;5095952;28;20491;-60
2022/05/16 05:49:19;;;;;;;8.68;3.13;;;;;;;;;;5075150;28;20017;-60
2022/05/16 05:51:45;;;;;;;10.98;3.45;;;;;;;;;;5085859;28;20051;-60
2022/05/16 05:54:11;;;;;;;11.88;3.40;;;;;;;;;;5086107;28;20016;-61
2022/05/16 05:56:37;;;;;;;9.23;3.50;;;;;;;;;;5071165;28;20039;-60
2022/05/16 05:59:04;;;;;;;11.65;3.28;;;;;;;;;;5078326;28;20051;-60
2022/05/16 06:01:31;;;;;;;10.82;3.35;;;;;;;;;;5087525;28;20802;-60
2022/05/16 06:03:58;;;;;;;8.85;3.42;;;;;;;;;;5075668;28;20080;-59
2022/05/16 06:06:25;;;;;;;8.93;3.33;;;;;;;;;;5078137;28;20097;-59
2022/05/16 06:08:51;;;;;;;11.70;3.25;;;;;;;;;;5079745;28;20107;-59
2022/05/16 06:11:17;;;;;;;6.25;3.17;;;;;;;;;;5077336;28;20063;-60
2022/05/16 06:13:43;;;;;;;10.07;3.15;;;;;;;;;;5093161;28;20506;-61
2022/05/16 06:16:09;;;;;;;10.57;3.20;;;;;;;;;;5086322;28;20078;-59
2022/05/16 06:18:35;;;;;;;10.45;3.17;;;;;;;;;;5083476;28;20032;-60
2022/05/16 06:21:01;;;;;;;7.85;3.28;;;;;;;;;;5091463;28;20048;-60
2022/05/16 06:23:27;;;;;;;9.18;3.38;;;;;;;;;;5084685;28;20399;-60
2022/05/16 06:25:53;;;;;;;8.07;2.97;;;;;;;;;;5088629;28;20035;-60
2022/05/16 06:28:24;;;;;;;12.73;4.05;;;;;;;;;;5090779;28;20043;-59
2022/05/16 06:30:51;;;;;;;8.88;3.40;;;;;;;;;;5090525;28;20510;-60
2022/05/16 06:33:18;;;;;;;9.63;3.42;;;;;;;;;;5091983;28;20532;-60
2022/05/16 06:35:45;;;;;;;8.93;3.25;;;;;;;;;;5085976;28;20021;-60
2022/05/16 06:38:15;;;;;;;9.75;3.75;;;;;;;;;;5083410;28;20058;-60
2022/05/16 06:40:42;;;;;;;10.32;3.20;;;;;;;;;;5078669;28;20475;-60
2022/05/16 06:43:08;;;;;;;8.35;3.13;;;;;;;;;;5080006;28;20517;-60
2022/05/16 06:45:34;;;;;;;8.40;3.05;;;;;;;;;;5094894;28;20369;-61
2022/05/16 06:48:01;;;;;;;10.05;3.40;;;;;;;;;;5099323;28;20024;-60
2022/05/16 06:50:27;;;;;;;11.60;3.78;;;;;;;;;;5087798;28;20475;-60
2022/05/16 06:52:54;;;;;;;12.05;3.95;;;;;;;;;;5089837;28;20490;-60
2022/05/16 06:55:20;;;;;;;13.23;3.85;;;;;;;;;;5093732;28;20141;-60
2022/05/16 06:57:46;;;;;;;13.82;4.00;;;;;;;;;;5096108;28;20111;-60
2022/05/16 07:00:12;;;;;;;12.70;3.72;;;;;;;;;;5085737;28;20138;-60
2022/05/16 07:02:38;;;;;;;12.73;3.72;;;;;;;;;;5075439;28;20028;-60
2022/05/16 07:05:05;;;;;;;7.60;3.47;;;;;;;;;;5080875;28;20029;-60
2022/05/16 07:07:31;;;;;;;23.80;10.43;;;;;;;;;;5092760;28;20039;-61
2022/05/16 07:09:57;;;;;;;12.55;4.15;;;;;;;;;;5086252;28;20029;-61
2022/05/16 07:12:23;;;;;;;8.77;3.75;;;;;;;;;;5084349;28;20027;-61
2022/05/16 07:14:49;;;;;;;11.90;4.38;;;;;;;;;;5089270;28;20650;-61
2022/05/16 07:17:15;;;;;;;13.90;4.43;;;;;;;;;;5090552;28;20449;-61
2022/05/16 07:19:41;;;;;;;13.48;4.78;;;;;;;;;;5093254;28;20098;-61
2022/05/16 07:22:11;;;;;;;10.02;4.22;;;;;;;;;;5082173;28;20086;-61
2022/05/16 07:24:40;;;;;;;9.52;4.10;;;;;;;;;;5085644;28;20450;-61
2022/05/16 07:30:08;;;;;;;9.73;3.50;;;;;;;;;;5084823;28;21063;-61
2022/05/16 07:32:35;;;;;;;12.02;3.65;;;;;;;;;;5088584;28;20417;-61
2022/05/16 07:35:02;;;;;;;9.88;3.47;;;;;;;;;;5089558;28;20073;-61
2022/05/16 07:37:28;;;;;;;10.88;3.67;;;;;;;;;;5092090;28;20433;-61
2022/05/16 07:39:54;;;;;;;12.70;3.90;;;;;;;;;;5100450;28;20020;-61
2022/05/16 07:42:20;;;;;;;6.88;3.55;;;;;;;;;;5096555;28;20032;-60
2022/05/16 07:44:48;;;;;;;8.52;3.85;;;;;;;;;;5086088;28;20056;-61
2022/05/16 07:47:14;;;;;;;11.60;4.20;;;;;;;;;;5098240;28;20024;-62
2022/05/16 07:49:40;;;;;;;10.25;4.88;;;;;;;;;;5095327;28;20435;-61
2022/05/16 07:52:06;;;;;;;10.80;5.35;;;;;;;;;;5099873;28;20020;-62
2022/05/16 07:54:32;;;;;;;10.23;4.50;;;;;;;;;;5095503;28;20122;-62
2022/05/16 07:56:58;;;;;;;11.23;4.82;;;;;;;;;;5090596;28;20425;-61
2022/05/16 07:59:24;;;;;;;12.52;5.35;;;;;;;;;;5093208;28;20028;-60
2022/05/16 08:01:51;;;;;;;14.50;5.00;;;;;;;;;;5093647;28;20398;-61
2022/05/16 08:04:17;;;;;;;9.02;4.32;;;;;;;;;;5100856;28;20501;-61
2022/05/16 08:06:43;;;;;;;12.18;4.78;;;;;;;;;;5099343;28;20099;-61
2022/05/16 08:11:54;;;;;;;9.02;4.53;;;;;;;;;;5095863;28;20054;-61
2022/05/16 08:14:20;;;;;;;8.93;4.85;;;;;;;;;;5088284;28;20028;-61
2022/05/16 08:16:46;;;;;;;10.75;5.10;;;;;;;;;;5090801;28;20110;-61
2022/05/16 08:19:12;;;;;;;8.10;4.88;;;;;;;;;;5097026;28;20120;-62
2022/05/16 08:21:39;;;;;;;8.30;5.07;;;;;;;;;;5099949;28;20027;-61
2022/05/16 08:24:08;;;;;;;12.02;5.50;;;;;;;;;;5086723;28;20467;-61
2022/05/16 08:26:34;;;;;;;14.32;5.43;;;;;;;;;;5082545;28;20040;-61
2022/05/16 08:29:00;;;;;;;13.88;5.05;;;;;;;;;;5082700;28;20059;-61
2022/05/16 08:31:28;;;;;;;23.20;13.93;;;;;;;;;;5094927;28;20024;-59
2022/05/16 08:33:54;;;;;;;14.50;9.10;;;;;;;;;;5089618;28;20135;-58
2022/05/16 08:41:52;;;;;;;12.00;5.35;;;;;;;;;;5085880;28;20038;-59
2022/05/16 08:44:30;;;;;;;9.48;4.72;;;;;;;;;;5098904;28;20363;-59
2022/05/16 08:46:58;;;;;;;13.30;5.45;;;;;;;;;;5098525;28;20032;-59
2022/05/16 08:49:47;;;;;;;12.70;5.10;;;;;;;;;;5088414;28;20100;-59
2022/05/16 08:52:28;;;;;;;13.18;5.15;;;;;;;;;;5083809;28;20050;-59
2022/05/16 08:54:58;;;;;;;8.90;4.82;;;;;;;;;;5095090;28;20083;-59
2022/05/16 08:57:28;;;;;;;7.72;4.57;;;;;;;;;;5099920;28;20023;-59
2022/05/16 09:00:01;;;;;;;10.30;4.57;;;;;;;;;;5085252;28;20030;-59
2022/05/16 09:02:30;;;;;;;12.38;4.97;;;;;;;;;;5086562;28;20036;-59
2022/05/16 09:05:04;;;;;;;10.77;4.43;;;;;;;;;;5084604;28;20044;-59
2022/05/16 09:07:29;;;;;;;;;;;;;;;;;;5084558;28;20034;-59
2022/05/16 09:09:55;;;;;;;9.63;4.85;;;;;;;;;;5094119;28;20358;-59
2022/05/16 09:12:27;;;;;;;11.70;4.95;;;;;;;;;;5090814;28;20028;-60
2022/05/16 09:14:59;;;;;;;11.82;4.65;;;;;;;;;;5092322;28;20027;-59
2022/05/16 09:17:44;;;;;;;12.13;4.60;;;;;;;;;;5073904;28;20480;-59
2022/05/16 09:20:49;;;;;;;9.90;4.22;;;;;;;;;;5096567;28;20462;-59
2022/05/16 09:23:15;;;;;;;9.75;4.28;;;;;;;;;;5064794;28;20037;-59
2022/05/16 09:26:00;;;;;;;13.60;4.60;;;;;;;;;;5071846;28;20047;-59
2022/05/16 09:28:35;;;;;;;13.18;4.20;;;;;;;;;;5077291;28;20047;-60
2022/05/16 09:31:20;;;;;;;10.43;4.63;;;;;;;;;;5085654;28;20024;-60
2022/05/16 09:33:48;;;;;;;10.95;4.10;;;;;;;;;;5087834;28;20479;-59
2022/05/16 09:36:15;;;;;;;15.00;4.80;;;;;;;;;;5083345;28;20035;-59
2022/05/16 09:38:44;;;;;;;11.30;3.80;;;;;;;;;;5095216;28;20147;-58
2022/05/16 09:41:16;;;;;;;10.15;4.05;;;;;;;;;;5081299;28;20039;-59
2022/05/16 09:43:45;;;;;;;13.88;4.22;;;;;;;;;;5100455;28;20030;-59
2022/05/16 09:46:23;;;;;;;7.68;3.50;;;;;;;;;;5088074;28;20406;-58
2022/05/16 09:48:56;;;;;;;12.38;3.80;;;;;;;;;;5081965;28;20119;-59
2022/05/16 09:51:23;;;;;;;11.90;3.90;;;;;;;;;;5086562;28;20418;-59
2022/05/16 09:53:49;;;;;;;14.43;4.05;;;;;;;;;;5096153;27;20495;-60
2022/05/16 09:56:26;;;;;;;9.73;4.10;;;;;;;;;;5088500;28;20028;-60
2022/05/16 09:59:00;;;;;;;14.20;4.25;;;;;;;;;;5086307;28;20029;-59
2022/05/16 10:01:29;;;;;;;9.65;3.90;;;;;;;;;;5091453;28;20029;-59
2022/05/16 10:03:56;;;;;;;11.20;4.03;;;;;;;;;;5097198;28;20427;-59
2022/05/16 10:06:30;;;;;;;9.50;3.67;;;;;;;;;;5090465;28;20111;-60
2022/05/16 10:09:02;;;;;;;10.00;3.97;;;;;;;;;;5091390;28;20027;-60
2022/05/16 10:11:29;;;;;;;10.77;3.97;;;;;;;;;;5096436;28;20016;-60
2022/05/16 10:13:55;;;;;;;9.85;3.60;;;;;;;;;;5091545;28;20417;-59
2022/05/16 10:16:22;;;;;;;8.82;4.03;;;;;;;;;;5087629;28;20032;-60
2022/05/16 10:18:50;;;;;;;9.35;3.08;;;;;;;;;;5093079;28;20038;-59
2022/05/16 10:21:22;;;;;;;8.57;2.83;;;;;;;;;;5095943;28;20039;-60
2022/05/16 10:23:48;;;;;;;8.02;2.83;;;;;;;;;;5091701;28;20454;-59
2022/05/16 10:26:23;;;;;;;6.72;2.95;;;;;;;;;;5090458;28;20375;-59
2022/05/16 10:28:52;;;;;;;8.50;3.08;;;;;;;;;;5085936;28;20035;-59
2022/05/16 10:34:08;;;;;;;8.48;3.15;;;;;;;;;;5080402;28;20443;-60
2022/05/16 10:36:36;;;;;;;6.07;2.75;;;;;;;;;;5087858;28;20036;-59
2022/05/16 10:39:04;;;;;;;5.78;3.15;;;;;;;;;;5090214;28;20024;-60
2022/05/16 10:41:33;;;;;;;8.52;3.60;;;;;;;;;;5094784;28;20087;-59
2022/05/16 10:44:17;;;;;;;7.13;3.25;;;;;;;;;;5091976;28;20023;-60
2022/05/16 10:46:44;;;;;;;4.35;2.78;;;;;;;;;;5091095;28;20024;-59
2022/05/16 10:49:17;;;;;;;9.43;3.63;;;;;;;;;;5093035;28;20156;-59
2022/05/16 10:52:00;;;;;;;9.90;3.30;;;;;;;;;;5090351;28;20466;-60
2022/05/16 10:54:29;;;;;;;9.80;3.83;;;;;;;;;;5085921;28;20055;-60
2022/05/16 10:56:55;;;;;;;8.40;3.85;;;;;;;;;;5082652;28;20020;-59
2022/05/16 10:59:21;;;;;;;9.05;3.53;;;;;;;;;;5085178;28;20034;-60
2022/05/16 11:01:58;;;;;;;10.65;3.42;;;;;;;;;;5091242;28;20102;-60
2022/05/16 11:04:41;;;;;;;8.90;3.58;;;;;;;;;;5088193;28;20020;-60
2022/05/16 11:07:16;;;;;;;10.60;3.47;;;;;;;;;;5080511;28;20697;-60
2022/05/16 11:09:49;;;;;;;10.32;3.88;;;;;;;;;;5075611;28;20024;-60
2022/05/16 11:12:21;;;;;;;8.27;3.73;;;;;;;;;;5078552;28;20058;-60
2022/05/16 11:15:06;;;;;;;8.15;3.47;;;;;;;;;;5086474;28;20024;-61
2022/05/16 11:17:52;;;;;;;10.15;3.78;;;;;;;;;;5094329;28;20441;-60
2022/05/16 11:20:22;;;;;;;11.02;3.60;;;;;;;;;;5091283;28;20107;-59
2022/05/16 11:22:54;;;;;;;7.72;3.20;;;;;;;;;;5089912;28;20031;-60
2022/05/16 11:25:28;;;;;;;7.07;3.97;;;;;;;;;;5100446;28;20038;-60
2022/05/16 11:27:57;;;;;;;11.15;3.65;;;;;;;;;;5084894;28;20039;-60
2022/05/16 11:30:42;;;;;;;8.55;2.95;;;;;;;;;;5081289;28;20672;-59
2022/05/16 11:33:14;;;;;;;8.38;2.95;;;;;;;;;;5084648;28;20038;-60
2022/05/16 11:35:43;;;;;;;8.50;3.20;;;;;;;;;;5086933;28;20447;-60
2022/05/16 11:38:10;;;;;;;7.18;2.90;;;;;;;;;;5097740;28;20570;-59
2022/05/16 11:40:54;;;;;;;9.80;3.17;;;;;;;;;;5088000;28;20025;-60
2022/05/16 11:43:42;;;;;;;11.27;3.10;;;;;;;;;;5084202;28;20173;-61
2022/05/16 11:46:27;;;;;;;8.95;3.10;;;;;;;;;;5090303;28;20032;-60
2022/05/16 11:49:05;;;;;;;8.40;3.20;;;;;;;;;;5097344;28;20123;-60
2022/05/16 11:51:43;;;;;;;22.85;5.22;;;;;;;;;;5094079;28;20575;-61
2022/05/16 11:54:10;;;;;;;26.02;7.20;;;;;;;;;;5082745;28;20036;-60
2022/05/16 12:02:32;;;;;;;14.10;4.60;;;;;;;;;;5083158;28;20092;-59
2022/05/16 12:05:01;;;;;;;8.77;4.63;;;;;;;;;;5089141;28;20028;-60
2022/05/16 12:07:37;;;;;;;15.98;8.57;;;;;;;;;;5090645;28;21062;-59
2022/05/16 12:10:15;;;;;;;11.48;5.28;;;;;;;;;;5086792;28;20452;-60
2022/05/16 12:12:42;;;;;;;13.18;5.20;;;;;;;;;;5087830;28;20028;-60
2022/05/16 12:15:18;;;;;;;7.25;4.20;;;;;;;;;;5093278;28;20019;-60
2022/05/16 12:18:05;;;;;;;14.02;5.00;;;;;;;;;;5102913;28;20024;-60
2022/05/16 12:20:34;;;;;;;10.88;5.30;;;;;;;;;;5090381;28;20097;-60
2022/05/16 12:23:00;;;;;;;10.32;4.80;;;;;;;;;;5096404;28;20067;-60
2022/05/16 12:25:28;;;;;;;12.10;4.97;;;;;;;;;;5097066;28;20032;-60
2022/05/16 12:28:19;;;;;;;9.45;4.53;;;;;;;;;;5106502;28;20055;-60
2022/05/16 12:30:50;;;;;;;10.27;4.30;;;;;;;;;;5097429;28;20035;-59
2022/05/16 12:33:35;;;;;;;9.38;4.50;;;;;;;;;;5090185;28;20082;-60
2022/05/16 12:36:01;;;;;;;12.57;4.85;;;;;;;;;;5094016;28;20046;-60
2022/05/16 12:38:28;;;;;;;10.10;5.05;;;;;;;;;;5093835;28;20032;-60
2022/05/16 12:41:04;;;;;;;13.15;4.75;;;;;;;;;;5091549;28;20024;-60
2022/05/16 12:43:44;;;;;;;9.77;4.55;;;;;;;;;;5088602;28;20063;-60
2022/05/16 12:46:22;;;;;;;16.40;4.72;;;;;;;;;;5095434;27;20032;-60
2022/05/16 12:49:07;;;;;;;10.27;5.00;;;;;;;;;;5097641;28;20509;-59
2022/05/16 12:51:33;;;;;;;12.85;4.68;;;;;;;;;;5082109;28;20037;-60
2022/05/16 12:54:09;;;;;;;10.13;4.68;;;;;;;;;;5095943;28;20042;-60
2022/05/16 12:56:41;;;;;;;12.75;4.90;;;;;;;;;;5095818;28;20162;-59
2022/05/16 12:59:22;;;;;;;10.77;4.50;;;;;;;;;;5088840;28;20027;-60
2022/05/16 13:01:55;;;;;;;12.50;3.80;;;;;;;;;;5085355;28;20092;-61
2022/05/16 13:04:40;;;;;;;6.30;3.67;;;;;;;;;;5083441;28;20059;-60
2022/05/16 13:07:17;;;;;;;7.10;3.50;;;;;;;;;;5087807;28;20559;-60
2022/05/16 13:09:43;;;;;;;10.98;3.30;;;;;;;;;;5086281;28;20476;-60
2022/05/16 13:12:18;;;;;;;7.15;3.30;;;;;;;;;;5085425;28;20097;-60
2022/05/16 13:14:50;;;;;;;8.68;3.55;;;;;;;;;;5092696;27;20069;-60
2022/05/16 13:17:29;;;;;;;7.70;3.60;;;;;;;;;;5096779;28;20021;-60
2022/05/16 13:19:55;;;;;;;8.27;3.55;;;;;;;;;;5098893;28;20026;-60
2022/05/16 13:22:22;;;;;;;8.23;3.40;;;;;;;;;;5096761;28;20048;-60
2022/05/16 13:24:52;;;;;;;6.93;3.33;;;;;;;;;;5085187;28;20035;-60
2022/05/16 13:30:05;;;;;;;8.95;3.65;;;;;;;;;;5092129;28;20651;-59
2022/05/16 13:32:31;;;;;;;8.25;3.70;;;;;;;;;;5086622;28;20025;-59
2022/05/16 13:34:58;;;;;;;8.48;4.50;;;;;;;;;;5084648;28;20619;-61
2022/05/16 13:37:27;;;;;;;11.65;4.60;;;;;;;;;;5094569;28;20039;-60
2022/05/16 13:40:00;;;;;;;9.70;5.03;;;;;;;;;;5098234;28;20047;-60
2022/05/16 13:42:27;;;;;;;11.15;4.88;;;;;;;;;;5085722;28;20036;-60
2022/05/16 13:44:57;;;;;;;9.02;5.00;;;;;;;;;;5091546;28;20024;-60
2022/05/16 13:47:23;;;;;;;12.70;5.13;;;;;;;;;;5083133;28;20112;-60
2022/05/16 13:49:49;;;;;;;15.65;5.38;;;;;;;;;;5099590;28;20065;-60
2022/05/16 13:52:20;;;;;;;11.85;5.22;;;;;;;;;;5092187;28;20040;-59
2022/05/16 13:54:47;;;;;;;11.68;5.72;;;;;;;;;;5095769;28;20020;-59
2022/05/16 13:57:16;;;;;;;9.27;5.80;;;;;;;;;;5091821;28;20038;-59
2022/05/16 13:59:42;;;;;;;18.63;5.55;;;;;;;;;;5090458;28;20019;-59
2022/05/16 14:02:15;;;;;;;13.63;6.15;;;;;;;;;;5085514;28;20039;-60
2022/05/16 14:04:44;;;;;;;14.30;6.60;;;;;;;;;;5097542;28;20503;-60
2022/05/16 14:07:19;;;;;;;13.80;6.20;;;;;;;;;;5097437;28;20038;-60
2022/05/16 14:09:49;;;;;;;12.82;7.25;;;;;;;;;;5087898;28;20031;-59
2022/05/16 14:12:17;;;;;;;11.63;6.80;;;;;;;;;;5094599;28;20379;-61
2022/05/16 14:14:44;;;;;;;11.35;7.25;;;;;;;;;;5091398;28;20067;-60
2022/05/16 14:17:11;;;;;;;11.80;7.20;;;;;;;;;;5102028;28;20044;-60
2022/05/16 14:19:45;;;;;;;10.23;6.65;;;;;;;;;;5099416;28;20100;-60
2022/05/16 14:22:26;;;;;;;19.98;7.45;;;;;;;;;;5097102;28;20111;-59
2022/05/16 14:24:53;;;;;;;13.95;7.57;;;;;;;;;;5087507;28;20038;-60
2022/05/16 14:27:34;;;;;;;11.95;7.45;;;;;;;;;;5094441;28;20401;-60
2022/05/16 14:30:01;;;;;;;14.18;8.23;;;;;;;;;;5099360;28;20031;-59
2022/05/16 14:32:28;;;;;;;13.98;7.28;;;;;;;;;;5101143;28;20030;-59
2022/05/16 14:35:03;;;;;;;14.18;8.02;;;;;;;;;;5095109;28;20063;-59
2022/05/16 14:37:31;;;;;;;12.55;8.02;;;;;;;;;;5087651;28;20140;-60
2022/05/16 14:40:00;;;;;;;12.20;8.35;;;;;;;;;;5092240;28;20008;-59
2022/05/16 14:42:27;;;;;;;14.65;8.02;;;;;;;;;;5087879;28;20036;-59
2022/05/16 14:45:02;;;;;;;12.48;8.02;;;;;;;;;;5093835;28;20028;-59
2022/05/16 14:47:40;;;;;;;16.15;8.48;;;;;;;;;;5088913;28;20053;-60
2022/05/16 14:50:11;;;;;;;16.75;8.55;;;;;;;;;;5097323;28;20024;-59
2022/05/16 14:52:39;;;;;;;15.73;8.38;;;;;;;;;;5085485;28;20028;-59
2022/05/16 14:55:09;;;;;;;13.45;8.13;;;;;;;;;;5089695;28;20028;-59
2022/05/16 14:57:34;;;;;;;14.40;8.13;;;;;;;;;;5087538;28;20127;-60
2022/05/16 15:00:01;;;;;;;14.93;7.93;;;;;;;;;;5104379;27;20080;-59
2022/05/16 15:05:11;;;;;;;15.32;7.68;;;;;;;;;;5082190;28;20469;-58
2022/05/16 15:07:40;;;;;;;10.32;7.38;;;;;;;;;;5097256;28;20114;-59
2022/05/16 15:10:07;;;;;;;12.52;7.72;;;;;;;;;;5090413;28;20118;-59
2022/05/16 15:12:34;;;;;;;11.63;7.07;;;;;;;;;;5087933;28;20035;-59
2022/05/16 15:15:00;;;;;;;12.68;7.60;;;;;;;;;;5080832;28;20023;-59
2022/05/16 15:17:26;;;;;;;9.55;7.00;;;;;;;;;;5095355;28;20020;-59
2022/05/16 15:19:52;;;;;;;14.98;8.00;;;;;;;;;;5090582;28;20526;-59
2022/05/16 15:22:18;;;;;;;12.60;7.72;;;;;;;;;;5092352;28;20077;-58
2022/05/16 15:24:52;;;;;;;10.65;7.82;;;;;;;;;;5102895;28;20020;-59
2022/05/16 15:27:18;;;;;;;11.68;7.88;;;;;;;;;;5091395;28;20123;-60
2022/05/16 15:29:45;;;;;;;11.63;8.25;;;;;;;;;;5087916;28;20056;-60